DEKCM EDLW-EDLW

Flight info

Callsign DEKCM
Flight time 0h 57m
Altitude
Route EDLW/06
Aircraft DA40

Departure

Time 2026-05-06 18:23
Airport Dortmund Airport (EDLW)

Arrival

Time 2026-05-06 19:21
Airport Dortmund Airport (EDLW)
Time Latitude Longitude Altitude Speed Heading
2026-05-06 18:00 51.51254 7.60556 457 ft 0 kts 103°
2026-05-06 18:11 51.51276 7.60478 441 ft 16 kts 230°
2026-05-06 18:11 51.51210 7.60338 451 ft 18 kts 243°
2026-05-06 18:11 51.51152 7.60199 455 ft 12 kts 263°
2026-05-06 18:11 51.51215 7.60212 441 ft 18 kts 62°
2026-05-06 18:12 51.51282 7.60406 436 ft 21 kts 60°
2026-05-06 18:12 51.51354 7.60609 436 ft 18 kts 60°
2026-05-06 18:12 51.51420 7.60798 428 ft 22 kts 60°
2026-05-06 18:12 51.51442 7.60859 424 ft 0 kts 64°
2026-05-06 18:14 51.51484 7.60981 423 ft 18 kts 59°
2026-05-06 18:14 51.51561 7.61042 420 ft 13 kts 320°
2026-05-06 18:14 51.51558 7.60894 422 ft 16 kts 254°
2026-05-06 18:14 51.51528 7.60711 416 ft 8 kts 262°
2026-05-06 18:15 51.51527 7.60685 416 ft 0 kts 279°
2026-05-06 18:21 51.51577 7.60609 415 ft 15 kts 356°
2026-05-06 18:22 51.51632 7.60654 416 ft 0 kts 60°
2026-05-06 18:22 51.51633 7.60656 416 ft 3 kts 60°
2026-05-06 18:23 51.51745 7.60972 417 ft 63 kts 60°
2026-05-06 18:23 51.51793 7.61712 590 ft 73 kts 123°
2026-05-06 18:23 51.51494 7.62338 825 ft 72 kts 144°
2026-05-06 18:23 51.51063 7.62221 1035 ft 75 kts 233°
2026-05-06 18:24 51.50765 7.61448 1151 ft 81 kts 242°
2026-05-06 18:24 51.50496 7.60671 1325 ft 75 kts 218°
2026-05-06 18:24 51.50151 7.60985 1351 ft 75 kts 83°
2026-05-06 18:24 51.50520 7.61211 1373 ft 74 kts 308°
2026-05-06 18:25 51.50398 7.60573 1399 ft 74 kts 198°
2026-05-06 18:25 51.50038 7.60947 1433 ft 72 kts 87°
2026-05-06 18:25 51.50409 7.61295 1443 ft 74 kts 330°
2026-05-06 18:25 51.50438 7.60592 1461 ft 74 kts 213°
2026-05-06 18:26 51.50061 7.60931 1460 ft 78 kts 91°
2026-05-06 18:26 51.50443 7.61322 1478 ft 77 kts 328°
2026-05-06 18:26 51.50368 7.60700 1518 ft 73 kts 182°
2026-05-06 18:26 51.50255 7.61270 1509 ft 75 kts 29°
2026-05-06 18:27 51.50575 7.60838 1499 ft 77 kts 253°
2026-05-06 18:27 51.50131 7.60536 1492 ft 83 kts 177°
2026-05-06 18:27 51.49574 7.60789 1665 ft 86 kts 149°
2026-05-06 18:27 51.49056 7.61198 1947 ft 79 kts 157°
2026-05-06 18:28 51.48552 7.61577 2185 ft 81 kts 156°
2026-05-06 18:28 51.48045 7.61881 2445 ft 79 kts 158°
2026-05-06 18:28 51.47556 7.62164 2722 ft 74 kts 165°
2026-05-06 18:28 51.47041 7.62314 2939 ft 76 kts 172°
2026-05-06 18:29 51.46524 7.62432 3158 ft 81 kts 171°
2026-05-06 18:29 51.45878 7.62616 3197 ft 105 kts 169°
2026-05-06 18:29 51.45163 7.62859 3413 ft 104 kts 166°
2026-05-06 18:29 51.44455 7.63149 3610 ft 106 kts 165°
2026-05-06 18:30 51.43745 7.63456 3651 ft 101 kts 164°
2026-05-06 18:30 51.43053 7.63873 3714 ft 112 kts 151°
2026-05-06 18:30 51.42458 7.64655 3914 ft 110 kts 139°
2026-05-06 18:30 51.41842 7.65292 4180 ft 104 kts 150°
2026-05-06 18:31 51.41214 7.65866 4378 ft 107 kts 149°
2026-05-06 18:31 51.40585 7.66507 4568 ft 109 kts 136°
2026-05-06 18:31 51.40765 7.67339 4642 ft 114 kts 348°
2026-05-06 18:31 51.40938 7.66191 4549 ft 131 kts 259°
2026-05-06 18:32 51.40737 7.64711 4478 ft 139 kts 262°
2026-05-06 18:32 51.41130 7.63462 4502 ft 129 kts 324°
2026-05-06 18:32 51.41893 7.62649 4118 ft 136 kts 327°
2026-05-06 18:32 51.42701 7.61857 3792 ft 135 kts 329°
2026-05-06 18:33 51.43497 7.61138 3504 ft 133 kts 332°
2026-05-06 18:33 51.44314 7.60454 3218 ft 130 kts 333°
2026-05-06 18:33 51.45138 7.59941 3041 ft 122 kts 352°
2026-05-06 18:33 51.45956 7.60135 2770 ft 125 kts 22°
2026-05-06 18:34 51.46776 7.60750 2426 ft 133 kts 26°
2026-05-06 18:34 51.47604 7.61413 2121 ft 133 kts 26°
2026-05-06 18:34 51.48459 7.62009 1792 ft 134 kts 20°
2026-05-06 18:34 51.49267 7.62393 1634 ft 107 kts 15°
2026-05-06 18:35 51.49936 7.62514 1505 ft 89 kts 327°
2026-05-06 18:35 51.49758 7.62400 1464 ft 90 kts 84°
2026-05-06 18:35 51.50219 7.62600 1349 ft 93 kts 300°
2026-05-06 18:35 51.50140 7.61659 1327 ft 83 kts 251°
2026-05-06 18:36 51.49854 7.61014 1381 ft 78 kts 168°
2026-05-06 18:36 51.49840 7.61721 1504 ft 89 kts 36°
2026-05-06 18:36 51.50306 7.61453 1472 ft 79 kts 279°
2026-05-06 18:36 51.50162 7.60637 1372 ft 74 kts 252°
2026-05-06 18:37 51.50057 7.59848 1264 ft 71 kts 276°
2026-05-06 18:37 51.50208 7.59371 1142 ft 75 kts 317°
2026-05-06 18:37 51.50855 7.58911 886 ft 75 kts 354°
2026-05-06 18:37 51.51217 7.59406 672 ft 77 kts 66°
2026-05-06 18:38 51.51461 7.60157 484 ft 74 kts 61°
2026-05-06 18:38 51.51698 7.60832 416 ft 64 kts 60°
2026-05-06 18:38 51.51912 7.61487 504 ft 71 kts 73°
2026-05-06 18:38 51.51934 7.62267 728 ft 72 kts 100°
2026-05-06 18:39 51.51609 7.62745 945 ft 71 kts 191°
2026-05-06 18:39 51.51254 7.62125 1073 ft 87 kts 240°
2026-05-06 18:39 51.50951 7.61274 1123 ft 79 kts 240°
2026-05-06 18:40 51.50458 7.59755 1143 ft 81 kts 245°
2026-05-06 18:40 51.50214 7.58895 1173 ft 87 kts 247°
2026-05-06 18:40 51.49970 7.57982 1222 ft 90 kts 248°
2026-05-06 18:40 51.49845 7.57100 1271 ft 76 kts 297°
2026-05-06 18:41 51.50356 7.56889 1132 ft 90 kts 27°
2026-05-06 18:41 51.50621 7.57662 1110 ft 69 kts 65°
2026-05-06 18:41 51.50825 7.58306 1019 ft 62 kts 61°
2026-05-06 18:41 51.51025 7.58916 869 ft 63 kts 62°
2026-05-06 18:42 51.51247 7.59555 694 ft 68 kts 60°
2026-05-06 18:42 51.51374 7.60308 897 ft 71 kts 96°
2026-05-06 18:42 51.51306 7.61100 1115 ft 72 kts 91°
2026-05-06 18:42 51.51250 7.61600 1284 ft 69 kts 139°
2026-05-06 18:43 51.50845 7.61227 1365 ft 88 kts 238°
2026-05-06 18:43 51.50547 7.60370 1350 ft 81 kts 246°
2026-05-06 18:43 51.50654 7.59576 1195 ft 76 kts 284°
2026-05-06 18:43 51.51072 7.59129 906 ft 77 kts 33°
2026-05-06 18:44 51.51376 7.59912 579 ft 85 kts 60°
2026-05-06 18:44 51.51652 7.60703 427 ft 76 kts 60°
2026-05-06 18:44 51.51888 7.61377 414 ft 65 kts 61°
2026-05-06 18:44 51.52130 7.62089 573 ft 75 kts 68°
2026-05-06 18:45 51.52118 7.62898 817 ft 73 kts 127°
2026-05-06 18:45 51.51697 7.62889 1057 ft 70 kts 230°
2026-05-06 18:45 51.51396 7.62170 1061 ft 77 kts 239°
2026-05-06 18:45 51.51137 7.61463 984 ft 72 kts 242°
2026-05-06 18:46 51.50891 7.60715 1020 ft 76 kts 243°
2026-05-06 18:46 51.50814 7.59961 984 ft 74 kts 311°
2026-05-06 18:46 51.51250 7.59636 804 ft 75 kts 39°
2026-05-06 18:46 51.51561 7.60436 455 ft 86 kts 62°
2026-05-06 18:47 51.51830 7.61198 427 ft 72 kts 60°
2026-05-06 18:47 51.52098 7.61966 621 ft 79 kts 64°
2026-05-06 18:47 51.52046 7.62712 886 ft 73 kts 146°
2026-05-06 18:47 51.51600 7.62467 1097 ft 75 kts 224°
2026-05-06 18:48 51.51282 7.61771 1126 ft 71 kts 236°
2026-05-06 18:48 51.51013 7.61117 1100 ft 72 kts 237°
2026-05-06 18:48 51.50751 7.60430 1046 ft 73 kts 240°
2026-05-06 18:48 51.50357 7.60400 1064 ft 79 kts 104°
2026-05-06 18:49 51.50702 7.60598 1182 ft 83 kts 287°
2026-05-06 18:49 51.50336 7.60375 1221 ft 83 kts 116°
2026-05-06 18:49 51.50655 7.60829 1215 ft 82 kts 324°
2026-05-06 18:49 51.50585 7.60123 1187 ft 76 kts 197°
2026-05-06 18:50 51.50263 7.60605 1134 ft 75 kts 77°
2026-05-06 18:50 51.50665 7.60936 1140 ft 76 kts 336°
2026-05-06 18:50 51.50711 7.60248 1188 ft 79 kts 205°
2026-05-06 18:50 51.50457 7.60758 1183 ft 83 kts 52°
2026-05-06 18:51 51.50853 7.60528 1205 ft 82 kts 259°
2026-05-06 18:51 51.50509 7.60599 1324 ft 63 kts 80°
2026-05-06 18:51 51.50823 7.60460 1280 ft 84 kts 260°
2026-05-06 18:51 51.50691 7.59542 1153 ft 84 kts 251°
2026-05-06 18:52 51.51048 7.58912 1076 ft 104 kts 22°
2026-05-06 18:52 51.51434 7.60091 543 ft 151 kts 67°
2026-05-06 18:52 51.51953 7.61554 417 ft 147 kts 60°
2026-05-06 18:52 51.52451 7.62387 1175 ft 77 kts
2026-05-06 18:53 51.52824 7.61774 1304 ft 91 kts 275°
2026-05-06 18:53 51.52616 7.60884 1309 ft 81 kts 235°
2026-05-06 18:53 51.52295 7.60191 1206 ft 77 kts 231°
2026-05-06 18:53 51.51941 7.59495 1048 ft 81 kts 230°
2026-05-06 18:54 51.51555 7.58872 907 ft 77 kts 206°
2026-05-06 18:54 51.51149 7.59156 725 ft 73 kts 91°
2026-05-06 18:54 51.51376 7.59899 524 ft 73 kts 61°
2026-05-06 18:54 51.51612 7.60589 424 ft 69 kts 60°
2026-05-06 18:55 51.51839 7.61232 421 ft 71 kts 60°
2026-05-06 18:55 51.52122 7.62012 603 ft 81 kts 59°
2026-05-06 18:55 51.52524 7.62521 846 ft 78 kts 354°
2026-05-06 18:55 51.52907 7.61946 1055 ft 83 kts 279°
2026-05-06 18:56 51.52707 7.61111 1179 ft 82 kts 237°
2026-05-06 18:56 51.52379 7.60360 1104 ft 82 kts 234°
2026-05-06 18:56 51.52037 7.59610 999 ft 84 kts 232°
2026-05-06 18:56 51.51677 7.58952 911 ft 72 kts 217°
2026-05-06 18:57 51.51236 7.58992 763 ft 72 kts 125°
2026-05-06 18:57 51.51336 7.59783 562 ft 80 kts 59°
2026-05-06 18:57 51.51594 7.60546 421 ft 72 kts 60°
2026-05-06 18:57 51.51821 7.61187 416 ft 63 kts 60°
2026-05-06 18:58 51.52067 7.61887 580 ft 74 kts 54°
2026-05-06 18:58 51.52499 7.62132 813 ft 73 kts 338°
2026-05-06 18:58 51.52675 7.61450 1015 ft 77 kts 246°
2026-05-06 18:58 51.52410 7.60641 1060 ft 91 kts 240°
2026-05-06 18:59 51.52042 7.59618 997 ft 119 kts 239°
2026-05-06 18:59 51.51399 7.58959 903 ft 130 kts 146°
2026-05-06 18:59 51.51526 7.60356 472 ft 152 kts 59°
2026-05-06 18:59 51.52043 7.61800 422 ft 145 kts 60°
2026-05-06 19:00 51.52553 7.62688 1134 ft 83 kts 12°
2026-05-06 19:00 51.53038 7.62273 1318 ft 92 kts 294°
2026-05-06 19:00 51.52946 7.61324 1399 ft 97 kts 240°
2026-05-06 19:00 51.52518 7.60237 1263 ft 128 kts 237°
2026-05-06 19:01 51.51972 7.58993 1089 ft 140 kts 221°
2026-05-06 19:01 51.51183 7.59281 920 ft 144 kts 96°
2026-05-06 19:01 51.51673 7.60745 434 ft 158 kts 61°
2026-05-06 19:01 51.52192 7.62120 776 ft 104 kts 42°
2026-05-06 19:02 51.52720 7.62138 1267 ft 89 kts 313°
2026-05-06 19:02 51.52679 7.61157 1334 ft 107 kts 243°
2026-05-06 19:02 51.52260 7.60001 1197 ft 132 kts 239°
2026-05-06 19:02 51.51721 7.58741 1035 ft 142 kts 212°
2026-05-06 19:03 51.51097 7.59367 839 ft 145 kts 67°
2026-05-06 19:03 51.51688 7.60797 428 ft 155 kts 60°
2026-05-06 19:03 51.52179 7.62208 721 ft 106 kts 71°
2026-05-06 19:03 51.51913 7.62892 1240 ft 87 kts 186°
2026-05-06 19:04 51.51440 7.62190 1207 ft 102 kts 244°
2026-05-06 19:04 51.51164 7.61200 987 ft 96 kts 245°
2026-05-06 19:04 51.50928 7.60246 791 ft 89 kts 261°
2026-05-06 19:04 51.51230 7.59638 669 ft 76 kts 19°
2026-05-06 19:05 51.51526 7.60346 442 ft 76 kts 60°
2026-05-06 19:05 51.51768 7.61027 419 ft 66 kts 60°
2026-05-06 19:05 51.52048 7.61791 550 ft 81 kts 54°
2026-05-06 19:05 51.52489 7.62238 816 ft 78 kts
2026-05-06 19:06 51.52817 7.61655 1007 ft 83 kts 257°
2026-05-06 19:06 51.52588 7.60699 1107 ft 101 kts 245°
2026-05-06 19:06 51.52420 7.59635 1310 ft 99 kts 301°
2026-05-06 19:06 51.52926 7.59838 1400 ft 107 kts 90°
2026-05-06 19:07 51.52357 7.60013 1324 ft 124 kts 246°
2026-05-06 19:07 51.52862 7.59483 1302 ft 127 kts 50°
2026-05-06 19:07 51.52481 7.60287 1299 ft 128 kts 207°
2026-05-06 19:07 51.52655 7.59360 1379 ft 122 kts 13°
2026-05-06 19:08 51.52544 7.60267 1289 ft 130 kts 187°
2026-05-06 19:08 51.52592 7.59330 1206 ft 133 kts
2026-05-06 19:08 51.52539 7.60172 1325 ft 122 kts 194°
2026-05-06 19:08 51.52726 7.59404 1342 ft 121 kts 24°
2026-05-06 19:09 51.52546 7.60275 1386 ft 122 kts 189°
2026-05-06 19:09 51.52520 7.59366 1489 ft 117 kts 358°
2026-05-06 19:09 51.52481 7.60179 1316 ft 131 kts 182°
2026-05-06 19:09 51.51866 7.58932 841 ft 153 kts 234°
2026-05-06 19:10 51.51239 7.59275 688 ft 147 kts 74°
2026-05-06 19:10 51.51686 7.60784 451 ft 149 kts 59°
2026-05-06 19:10 51.52187 7.62150 656 ft 116 kts 52°
2026-05-06 19:10 51.52709 7.62357 1241 ft 84 kts 314°
2026-05-06 19:11 51.52627 7.61404 1303 ft 103 kts 242°
2026-05-06 19:11 51.52283 7.60284 1345 ft 115 kts 249°
2026-05-06 19:11 51.52566 7.59438 1483 ft 97 kts
2026-05-06 19:11 51.52746 7.60247 1379 ft 96 kts 135°
2026-05-06 19:12 51.52170 7.60116 1259 ft 99 kts 242°
2026-05-06 19:12 51.51915 7.59083 1077 ft 101 kts 241°
2026-05-06 19:12 51.51534 7.58274 1008 ft 81 kts 207°
2026-05-06 19:12 51.51090 7.58597 822 ft 81 kts 112°
2026-05-06 19:13 51.51212 7.59433 612 ft 79 kts 62°
2026-05-06 19:13 51.51467 7.60167 464 ft 72 kts 63°
2026-05-06 19:13 51.51694 7.60813 417 ft 61 kts 60°
2026-05-06 19:13 51.51934 7.61505 511 ft 79 kts 61°
2026-05-06 19:14 51.52209 7.62262 766 ft 76 kts 52°
2026-05-06 19:14 51.52668 7.62348 990 ft 76 kts 311°
2026-05-06 19:14 51.52567 7.61543 1121 ft 81 kts 239°
2026-05-06 19:14 51.52251 7.60716 1176 ft 93 kts 237°
2026-05-06 19:15 51.52151 7.59824 1310 ft 83 kts 317°
2026-05-06 19:15 51.52586 7.60106 1274 ft 87 kts 86°
2026-05-06 19:15 51.52192 7.60476 1202 ft 80 kts 218°
2026-05-06 19:15 51.52252 7.59767 1145 ft 77 kts 341°
2026-05-06 19:16 51.52550 7.60255 1070 ft 76 kts 114°
2026-05-06 19:16 51.52097 7.60302 1086 ft 83 kts 236°
2026-05-06 19:16 51.52315 7.59620 1091 ft 82 kts
2026-05-06 19:16 51.52478 7.60270 1027 ft 78 kts 135°
2026-05-06 19:17 51.52046 7.60111 963 ft 76 kts 254°
2026-05-06 19:17 51.52370 7.59601 826 ft 81 kts 19°
2026-05-06 19:17 51.52408 7.60272 1018 ft 72 kts 156°
2026-05-06 19:17 51.52091 7.59850 1188 ft 79 kts 287°
2026-05-06 19:18 51.52515 7.59735 1258 ft 80 kts 66°
2026-05-06 19:18 51.52188 7.60079 1305 ft 82 kts 223°
2026-05-06 19:18 51.52365 7.59462 1290 ft 88 kts 22°
2026-05-06 19:18 51.52469 7.60225 1436 ft 81 kts 132°
2026-05-06 19:19 51.52009 7.60058 1448 ft 88 kts 247°
2026-05-06 19:19 51.51821 7.59095 1273 ft 86 kts 255°
2026-05-06 19:19 51.51639 7.58237 1157 ft 78 kts 248°
2026-05-06 19:19 51.51249 7.57782 990 ft 76 kts 171°
2026-05-06 19:20 51.51087 7.58450 772 ft 76 kts 85°
2026-05-06 19:20 51.51179 7.59265 627 ft 68 kts 90°
2026-05-06 19:20 51.51382 7.59929 493 ft 62 kts 60°
2026-05-06 19:20 51.51623 7.60615 450 ft 76 kts 60°
2026-05-06 19:21 51.51865 7.61302 414 ft 66 kts 60°
2026-05-06 19:21 51.52044 7.61830 407 ft 39 kts 60°
2026-05-06 19:21 51.52130 7.62071 407 ft 22 kts 59°
2026-05-06 19:21 51.52186 7.62274 405 ft 16 kts 98°
2026-05-06 19:22 51.52148 7.62347 405 ft 6 kts 150°
2026-05-06 19:22 51.52146 7.62349 405 ft 0 kts 151°
2026-05-06 19:23 51.52086 7.62400 404 ft 15 kts 168°
2026-05-06 19:23 51.52010 7.62270 406 ft 18 kts 240°
2026-05-06 19:23 51.51946 7.62088 408 ft 20 kts 240°
2026-05-06 19:23 51.51878 7.61896 411 ft 19 kts 240°
2026-05-06 19:24 51.51813 7.61711 412 ft 19 kts 241°
2026-05-06 19:24 51.51751 7.61535 413 ft 18 kts 241°
2026-05-06 19:24 51.51687 7.61355 415 ft 19 kts 240°
2026-05-06 19:24 51.51623 7.61171 424 ft 19 kts 240°
2026-05-06 19:25 51.51540 7.61060 426 ft 13 kts 173°
2026-05-06 19:25 51.51483 7.60978 430 ft 13 kts 241°
2026-05-06 19:25 51.51436 7.60844 431 ft 15 kts 240°
2026-05-06 19:25 51.51388 7.60709 432 ft 13 kts 241°
2026-05-06 19:26 51.51345 7.60586 434 ft 13 kts 241°
2026-05-06 19:26 51.51296 7.60448 439 ft 14 kts 241°
2026-05-06 19:26 51.51246 7.60305 443 ft 15 kts 241°
2026-05-06 19:26 51.51195 7.60173 449 ft 11 kts 204°
2026-05-06 19:27 51.51172 7.60249 454 ft 13 kts 58°
2026-05-06 19:27 51.51203 7.60374 455 ft 9 kts 109°
2026-05-06 19:27 51.51199 7.60390 457 ft 0 kts 108°